createdAt,value
2022-10-31T00:00:04.307Z,18.17
2022-10-31T00:02:55.284Z,18.30
2022-10-31T00:05:38.270Z,18.15
2022-10-31T00:08:21.183Z,17.90
2022-10-31T00:11:04.050Z,17.77
2022-10-31T00:13:46.800Z,14.98
2022-10-31T00:16:30.240Z,16.23
2022-10-31T00:19:14.242Z,18.77
2022-10-31T00:21:56.879Z,15.00
2022-10-31T00:24:39.537Z,16.55
2022-10-31T00:27:22.149Z,17.17
2022-10-31T00:30:05.126Z,17.23
2022-10-31T00:32:47.719Z,14.90
2022-10-31T00:35:31.723Z,17.33
2022-10-31T00:38:14.350Z,16.60
2022-10-31T00:40:57.178Z,16.05
2022-10-31T00:43:39.877Z,14.30
2022-10-31T00:46:22.524Z,14.98
2022-10-31T00:49:06.936Z,13.93
2022-10-31T00:51:51.005Z,14.30
2022-10-31T00:54:33.624Z,15.20
2022-10-31T00:57:16.235Z,18.50
2022-10-31T00:59:59.020Z,15.60
2022-10-31T01:02:41.854Z,17.48
2022-10-31T01:05:24.702Z,15.20
2022-10-31T01:08:08.736Z,12.55
2022-10-31T01:10:59.927Z,15.93
2022-10-31T01:13:42.874Z,13.63
2022-10-31T01:16:26.668Z,16.65
2022-10-31T01:19:09.277Z,17.90
2022-10-31T01:21:51.891Z,15.07
2022-10-31T01:24:35.964Z,18.13
2022-10-31T01:27:18.625Z,17.85
2022-10-31T01:30:02.263Z,21.40
2022-10-31T01:32:44.881Z,14.75
2022-10-31T01:35:27.510Z,17.38
2022-10-31T01:38:10.108Z,17.15
2022-10-31T01:40:54.126Z,17.30
2022-10-31T01:43:50.833Z,14.27
2022-10-31T01:46:34.992Z,17.15
2022-10-31T01:49:26.727Z,15.88
2022-10-31T01:52:12.484Z,13.77
2022-10-31T01:54:57.129Z,16.63
2022-10-31T01:57:43.332Z,20.48
2022-10-31T02:00:26.028Z,15.85
2022-10-31T02:03:08.712Z,15.50
2022-10-31T02:05:51.985Z,17.65
2022-10-31T02:08:39.997Z,14.05
2022-10-31T02:11:22.804Z,18.10
2022-10-31T02:14:06.831Z,20.02
2022-10-31T02:16:49.575Z,16.70
2022-10-31T02:19:36.843Z,16.40
2022-10-31T02:22:22.326Z,17.98
2022-10-31T02:25:12.252Z,20.40
2022-10-31T02:28:09.073Z,20.65
2022-10-31T02:31:14.252Z,16.55
2022-10-31T02:33:59.827Z,17.77
2022-10-31T02:36:45.117Z,18.77
2022-10-31T02:39:29.770Z,18.42
2022-10-31T02:42:16.956Z,15.43
2022-10-31T02:45:03.647Z,17.05
2022-10-31T02:47:48.346Z,16.27
2022-10-31T02:50:32.996Z,21.30
2022-10-31T02:53:16.236Z,15.68
2022-10-31T02:56:00.894Z,20.83
2022-10-31T02:58:45.160Z,14.43
2022-10-31T03:01:51.846Z,17.33
2022-10-31T03:04:41.307Z,16.33
2022-10-31T03:07:27.910Z,20.65
2022-10-31T03:10:16.593Z,16.67
2022-10-31T03:13:04.131Z,15.07
2022-10-31T03:15:50.792Z,17.77
2022-10-31T03:18:34.946Z,17.23
2022-10-31T03:21:22.466Z,17.17
2022-10-31T03:24:07.422Z,17.08
2022-10-31T03:26:53.535Z,15.93
2022-10-31T03:29:38.364Z,15.95
2022-10-31T03:32:25.408Z,15.13
2022-10-31T03:35:10.587Z,15.90
2022-10-31T03:37:56.190Z,18.88
2022-10-31T03:40:39.719Z,20.60
2022-10-31T03:43:25.367Z,17.58
2022-10-31T03:46:08.417Z,15.55
2022-10-31T03:48:51.612Z,18.48
2022-10-31T03:51:38.647Z,16.50
2022-10-31T03:54:25.088Z,18.55
2022-10-31T03:57:10.311Z,17.25
2022-10-31T03:59:53.929Z,17.90
2022-10-31T04:02:38.698Z,17.20
2022-10-31T04:05:21.984Z,15.30
2022-10-31T04:08:06.832Z,19.13
2022-10-31T04:10:51.763Z,18.80
2022-10-31T04:13:37.344Z,15.23
2022-10-31T04:16:26.963Z,16.23
2022-10-31T04:19:09.549Z,15.55
2022-10-31T04:21:52.949Z,21.92
2022-10-31T04:24:36.285Z,19.30
2022-10-31T04:27:20.334Z,19.73
2022-10-31T04:30:02.943Z,16.63
2022-10-31T04:32:48.493Z,19.73
2022-10-31T04:35:31.110Z,19.50
2022-10-31T04:38:13.844Z,22.33
2022-10-31T04:40:57.040Z,18.17
2022-10-31T04:44:13.382Z,21.90
2022-10-31T04:46:56.052Z,20.30
2022-10-31T04:49:39.138Z,21.75
2022-10-31T04:52:21.938Z,21.95
2022-10-31T04:55:04.774Z,21.77
2022-10-31T04:58:06.343Z,23.08
2022-10-31T05:00:53.134Z,19.60
2022-10-31T05:03:35.930Z,19.90
2022-10-31T05:06:18.817Z,22.08
2022-10-31T05:09:02.483Z,18.55
2022-10-31T05:11:45.314Z,21.98
2022-10-31T05:14:53.918Z,19.00
2022-10-31T05:17:57.129Z,21.55
2022-10-31T05:21:06.237Z,22.27
2022-10-31T05:23:54.198Z,24.10
2022-10-31T05:26:39.037Z,23.48
2022-10-31T05:29:21.663Z,21.15
2022-10-31T05:32:04.586Z,22.52
2022-10-31T05:35:12.414Z,22.42
2022-10-31T05:38:13.848Z,23.60
2022-10-31T05:40:58.557Z,19.95
2022-10-31T05:43:41.757Z,19.35
2022-10-31T05:46:24.493Z,22.23
2022-10-31T05:49:30.265Z,20.10
2022-10-31T05:52:14.306Z,21.10
2022-10-31T05:55:05.835Z,22.45
2022-10-31T05:57:48.557Z,22.55
2022-10-31T06:00:31.220Z,24.23
2022-10-31T06:03:22.017Z,18.73
2022-10-31T06:06:14.523Z,14.88
2022-10-31T06:08:59.023Z,18.25
2022-10-31T06:11:42.827Z,18.83
2022-10-31T06:14:25.452Z,17.00
2022-10-31T06:17:12.172Z,17.17
2022-10-31T06:19:54.845Z,18.25
2022-10-31T06:22:40.564Z,17.45
2022-10-31T06:25:24.572Z,21.48
2022-10-31T06:28:07.712Z,22.35
2022-10-31T06:31:08.102Z,19.02
2022-10-31T06:33:50.802Z,20.60
2022-10-31T06:36:33.422Z,18.55
2022-10-31T06:39:16.173Z,19.17
2022-10-31T06:42:00.436Z,18.63
2022-10-31T06:44:44.050Z,17.60
2022-10-31T06:48:15.425Z,16.42
2022-10-31T06:51:11.520Z,18.13
2022-10-31T06:53:54.137Z,18.70
2022-10-31T06:56:39.471Z,16.70
2022-10-31T06:59:25.061Z,15.40
2022-10-31T07:02:26.469Z,11.93
2022-10-31T07:05:09.376Z,14.10
2022-10-31T07:07:54.256Z,13.10
2022-10-31T07:10:40.626Z,15.50
2022-10-31T07:13:26.570Z,13.70
2022-10-31T07:16:18.867Z,12.68
2022-10-31T07:19:02.490Z,13.20
2022-10-31T07:21:45.510Z,12.57
2022-10-31T07:24:31.428Z,13.23
2022-10-31T07:27:40.092Z,13.70
2022-10-31T07:30:26.420Z,11.25
2022-10-31T07:33:13.440Z,11.85
2022-10-31T07:36:14.481Z,12.57
2022-10-31T07:39:00.501Z,10.45
2022-10-31T07:41:43.148Z,12.20
2022-10-31T07:44:26.114Z,11.95
2022-10-31T07:47:32.108Z,13.55
2022-10-31T07:50:35.347Z,10.80
2022-10-31T07:53:55.879Z,11.63
2022-10-31T07:56:41.362Z,12.27
2022-10-31T07:59:23.993Z,11.43
2022-10-31T08:02:07.028Z,12.13
2022-10-31T08:05:04.934Z,12.52
2022-10-31T08:08:07.727Z,12.10
2022-10-31T08:10:50.538Z,12.63
2022-10-31T08:13:33.278Z,12.35
2022-10-31T08:16:15.983Z,13.43
2022-10-31T08:19:12.529Z,14.23
2022-10-31T08:21:56.401Z,14.70
2022-10-31T08:24:40.418Z,12.15
2022-10-31T08:27:23.112Z,11.95
2022-10-31T08:30:06.639Z,13.45
2022-10-31T08:32:58.678Z,11.80
2022-10-31T08:36:07.697Z,12.85
2022-10-31T08:39:25.465Z,14.32
2022-10-31T08:42:09.480Z,13.45
2022-10-31T08:44:52.230Z,11.60
2022-10-31T08:47:37.711Z,12.98
2022-10-31T08:50:21.025Z,12.05
2022-10-31T08:53:06.163Z,11.45
2022-10-31T08:55:50.241Z,11.80
2022-10-31T08:58:41.972Z,9.77
2022-10-31T09:01:25.956Z,10.02
2022-10-31T09:04:08.724Z,10.77
2022-10-31T09:07:22.108Z,10.15
2022-10-31T09:09:56.701Z,12.48
2022-10-31T09:12:39.581Z,11.50
2022-10-31T09:15:59.563Z,11.27
2022-10-31T09:18:42.188Z,11.88
2022-10-31T09:21:24.924Z,11.13
2022-10-31T09:24:09.554Z,12.77
2022-10-31T09:26:52.180Z,10.43
2022-10-31T09:29:43.884Z,12.82
2022-10-31T09:32:29.494Z,14.00
2022-10-31T09:38:01.641Z,13.07
2022-10-31T09:40:45.501Z,10.75
2022-10-31T09:43:32.050Z,11.63
2022-10-31T09:46:18.495Z,13.90
2022-10-31T09:49:18.464Z,14.35
2022-10-31T09:55:00.266Z,15.95
2022-10-31T09:57:43.759Z,14.27
2022-10-31T10:00:26.524Z,12.80
2022-10-31T10:03:15.485Z,12.55
2022-10-31T10:06:03.504Z,12.35
2022-10-31T10:09:04.930Z,14.15
2022-10-31T10:12:10.612Z,12.25
2022-10-31T10:14:59.455Z,14.43
2022-10-31T10:17:51.382Z,14.05
2022-10-31T10:20:37.797Z,14.75
2022-10-31T10:23:28.511Z,13.15
2022-10-31T10:26:17.038Z,15.40
2022-10-31T10:29:02.736Z,14.32
2022-10-31T10:31:47.256Z,13.38
2022-10-31T10:34:31.557Z,12.85
2022-10-31T10:37:18.647Z,11.90
2022-10-31T10:40:07.583Z,13.68
2022-10-31T10:43:15.078Z,15.50
2022-10-31T10:46:18.609Z,12.45
2022-10-31T10:49:03.378Z,13.90
2022-10-31T10:52:01.907Z,11.25
2022-10-31T10:55:01.635Z,9.95
2022-10-31T10:57:51.225Z,11.05
2022-10-31T11:00:36.797Z,8.48
2022-10-31T11:03:19.809Z,11.23
2022-10-31T11:06:02.826Z,11.20
2022-10-31T11:08:45.588Z,10.02
2022-10-31T11:11:31.420Z,12.00
2022-10-31T11:14:15.411Z,11.13
2022-10-31T11:17:11.203Z,10.30
2022-10-31T11:20:01.906Z,10.73
2022-10-31T11:22:45.450Z,11.68
2022-10-31T11:25:28.478Z,14.18
2022-10-31T11:28:11.717Z,10.85
2022-10-31T11:30:55.669Z,11.30
2022-10-31T11:33:53.787Z,9.82
2022-10-31T11:36:39.286Z,8.18
2022-10-31T11:39:24.839Z,9.95
2022-10-31T11:42:09.070Z,11.75
2022-10-31T11:44:52.689Z,11.77
2022-10-31T11:47:37.759Z,10.45
2022-10-31T11:50:22.102Z,9.82
2022-10-31T11:53:06.320Z,9.50
2022-10-31T11:55:49.666Z,10.25
2022-10-31T11:58:33.551Z,9.95
2022-10-31T12:01:25.490Z,11.13
2022-10-31T12:04:08.978Z,9.93
2022-10-31T12:06:52.673Z,9.43
2022-10-31T12:09:37.801Z,11.55
2022-10-31T12:12:28.455Z,8.13
2022-10-31T12:15:20.408Z,9.73
2022-10-31T12:18:15.307Z,7.97
2022-10-31T12:21:05.611Z,11.95
2022-10-31T12:23:54.772Z,10.45
2022-10-31T12:26:42.217Z,11.25
2022-10-31T12:29:35.567Z,11.43
2022-10-31T12:32:23.371Z,10.73
2022-10-31T12:35:24.747Z,11.75
2022-10-31T12:38:32.341Z,9.07
2022-10-31T12:41:23.019Z,8.82
2022-10-31T12:44:08.238Z,7.75
2022-10-31T12:46:57.824Z,14.95
2022-10-31T12:49:56.351Z,11.90
2022-10-31T12:52:44.896Z,10.00
2022-10-31T12:55:34.698Z,11.23
2022-10-31T12:58:22.610Z,6.78
2022-10-31T13:01:10.087Z,10.73
2022-10-31T13:03:55.149Z,11.98
2022-10-31T13:06:44.467Z,14.27
2022-10-31T13:09:29.558Z,8.52
2022-10-31T13:12:12.919Z,8.95
2022-10-31T13:14:57.271Z,10.60
2022-10-31T13:17:45.370Z,10.68
2022-10-31T13:20:30.448Z,6.93
2022-10-31T13:23:37.009Z,9.07
2022-10-31T13:26:25.861Z,7.03
2022-10-31T13:29:14.069Z,7.45
2022-10-31T13:31:56.845Z,9.02
2022-10-31T13:34:43.553Z,10.50
2022-10-31T13:37:30.748Z,10.45
2022-10-31T13:40:16.878Z,9.35
2022-10-31T13:43:05.223Z,10.82
2022-10-31T13:45:51.894Z,8.60
2022-10-31T13:48:39.837Z,9.73
2022-10-31T13:51:31.350Z,7.65
2022-10-31T13:54:22.528Z,9.60
2022-10-31T13:57:08.662Z,8.80
2022-10-31T13:59:53.687Z,7.38
2022-10-31T14:02:37.190Z,9.88
2022-10-31T14:05:24.424Z,7.95
2022-10-31T14:08:18.274Z,8.52
2022-10-31T14:11:01.007Z,8.02
2022-10-31T14:13:45.448Z,9.60
2022-10-31T14:16:29.165Z,9.57
2022-10-31T14:19:16.914Z,7.65
2022-10-31T14:21:59.657Z,6.35
2022-10-31T14:24:43.859Z,11.50
2022-10-31T14:27:37.862Z,9.52
2022-10-31T14:30:23.473Z,9.93
2022-10-31T14:33:14.667Z,9.52
2022-10-31T14:36:02.569Z,11.73
2022-10-31T14:38:51.371Z,8.73
2022-10-31T14:41:42.850Z,11.82
2022-10-31T14:44:42.571Z,12.68
2022-10-31T14:47:29.716Z,12.65
2022-10-31T14:50:21.193Z,11.55
2022-10-31T14:53:05.760Z,9.63
2022-10-31T14:55:50.130Z,11.25
2022-10-31T14:58:40.503Z,10.15
2022-10-31T15:01:25.155Z,10.85
2022-10-31T15:04:22.882Z,11.25
2022-10-31T15:07:09.054Z,10.52
2022-10-31T15:09:57.562Z,10.13
2022-10-31T15:12:40.387Z,12.00
2022-10-31T15:15:26.687Z,10.70
2022-10-31T15:18:09.327Z,8.15
2022-10-31T15:20:52.860Z,14.20
2022-10-31T15:23:35.632Z,10.23
2022-10-31T15:26:20.638Z,12.15
2022-10-31T15:29:04.523Z,10.82
2022-10-31T15:31:55.362Z,9.02
2022-10-31T15:34:40.165Z,7.32
2022-10-31T15:37:23.533Z,8.80
2022-10-31T15:40:09.092Z,10.02
2022-10-31T15:42:53.195Z,8.40
2022-10-31T15:45:36.774Z,8.35
2022-10-31T15:48:23.757Z,9.77
2022-10-31T15:51:07.134Z,7.85
2022-10-31T15:53:50.404Z,7.78
2022-10-31T15:56:34.199Z,7.90
2022-10-31T15:59:25.679Z,11.10
2022-10-31T16:02:12.123Z,9.40
2022-10-31T16:04:57.499Z,8.45
2022-10-31T16:07:50.212Z,9.25
2022-10-31T16:10:35.070Z,13.80
2022-10-31T16:13:17.871Z,12.15
2022-10-31T16:19:06.437Z,9.93
2022-10-31T16:21:51.850Z,14.43
2022-10-31T16:24:35.429Z,13.68
2022-10-31T16:27:20.200Z,11.32
2022-10-31T16:30:05.318Z,13.63
2022-10-31T16:32:55.633Z,12.65
2022-10-31T16:35:39.493Z,13.32
2022-10-31T16:38:23.653Z,13.05
2022-10-31T16:41:06.450Z,15.32
2022-10-31T16:43:52.445Z,20.23
2022-10-31T16:46:35.295Z,14.50
2022-10-31T16:49:19.851Z,17.40
2022-10-31T16:52:02.534Z,15.35
2022-10-31T16:54:46.587Z,15.95
2022-10-31T16:57:31.580Z,15.93
2022-10-31T17:00:18.468Z,18.33
2022-10-31T17:03:03.526Z,18.75
2022-10-31T17:05:46.572Z,16.63
2022-10-31T17:08:29.305Z,15.77
2022-10-31T17:11:17.018Z,19.20
2022-10-31T17:14:00.221Z,19.95
2022-10-31T17:16:42.954Z,16.92
2022-10-31T17:19:26.468Z,17.30
2022-10-31T17:22:10.534Z,20.67
2022-10-31T17:24:53.351Z,21.88
2022-10-31T17:27:37.489Z,16.33
2022-10-31T17:30:21.271Z,20.17
2022-10-31T17:33:04.251Z,19.05
2022-10-31T17:35:47.260Z,22.63
2022-10-31T17:38:30.012Z,19.08
2022-10-31T17:41:12.622Z,15.57
2022-10-31T17:43:57.671Z,16.90
2022-10-31T17:46:40.287Z,14.32
2022-10-31T17:49:22.979Z,14.13
2022-10-31T17:52:05.934Z,14.70
2022-10-31T17:54:48.794Z,15.25
2022-10-31T17:57:33.785Z,17.05
2022-10-31T18:00:19.481Z,14.68
2022-10-31T18:03:03.207Z,17.75
2022-10-31T18:05:52.343Z,15.73
2022-10-31T18:08:37.238Z,16.27
2022-10-31T18:11:21.354Z,17.33
2022-10-31T18:14:04.394Z,16.83
2022-10-31T18:16:48.602Z,16.95
2022-10-31T18:19:31.302Z,12.02
2022-10-31T18:22:14.092Z,14.52
2022-10-31T18:25:01.835Z,17.60
2022-10-31T18:27:45.176Z,15.23
2022-10-31T18:30:27.828Z,17.45
2022-10-31T18:33:11.828Z,16.00
2022-10-31T18:35:54.610Z,15.27
2022-10-31T18:38:38.946Z,14.68
2022-10-31T18:41:21.855Z,16.38
2022-10-31T18:44:04.779Z,15.57
2022-10-31T18:46:47.385Z,16.35
2022-10-31T18:49:32.752Z,15.60
2022-10-31T18:52:15.490Z,13.77
2022-10-31T18:54:58.097Z,15.60
2022-10-31T18:57:40.723Z,13.88
2022-10-31T19:00:23.601Z,17.88
2022-10-31T19:03:06.561Z,12.90
2022-10-31T19:05:50.606Z,16.33
2022-10-31T19:08:33.351Z,13.50
2022-10-31T19:11:16.686Z,15.45
2022-10-31T19:13:59.384Z,17.10
2022-10-31T19:16:42.177Z,17.55
2022-10-31T19:19:24.898Z,17.08
2022-10-31T19:22:08.968Z,18.08
2022-10-31T19:24:51.861Z,18.58
2022-10-31T19:27:34.761Z,15.48
2022-10-31T19:30:17.678Z,18.95
2022-10-31T19:33:00.428Z,21.05
2022-10-31T19:35:43.149Z,18.00
2022-10-31T19:38:27.309Z,18.05
2022-10-31T19:41:11.132Z,17.83
2022-10-31T19:43:54.739Z,18.33
2022-10-31T19:46:52.935Z,17.42
2022-10-31T19:49:36.760Z,18.90
2022-10-31T19:52:19.578Z,17.77
2022-10-31T19:55:03.935Z,19.42
2022-10-31T19:58:01.350Z,15.10
2022-10-31T20:00:44.900Z,17.10
2022-10-31T20:03:27.739Z,16.15
2022-10-31T20:06:16.106Z,17.15
2022-10-31T20:08:59.623Z,17.83
2022-10-31T20:11:44.591Z,15.38
2022-10-31T20:14:27.273Z,13.35
2022-10-31T20:17:09.919Z,15.15
2022-10-31T20:19:52.842Z,16.30
2022-10-31T20:22:35.721Z,13.95
2022-10-31T20:25:18.999Z,15.38
2022-10-31T20:28:03.108Z,16.63
2022-10-31T20:30:45.854Z,16.50
2022-10-31T20:33:28.706Z,16.73
2022-10-31T20:36:12.105Z,15.55
2022-10-31T20:38:54.824Z,14.52
2022-10-31T20:41:39.275Z,15.98
2022-10-31T20:44:23.416Z,12.57
2022-10-31T20:47:06.665Z,15.82
2022-10-31T20:49:49.469Z,15.57
2022-10-31T20:52:32.230Z,14.18
2022-10-31T20:55:15.146Z,17.13
2022-10-31T20:57:58.377Z,18.90
2022-10-31T21:00:42.449Z,19.10
2022-10-31T21:03:25.402Z,17.30
2022-10-31T21:06:08.600Z,18.25
2022-10-31T21:08:51.836Z,13.55
2022-10-31T21:11:34.497Z,16.77
2022-10-31T21:14:17.131Z,15.55
2022-10-31T21:17:01.168Z,18.35
2022-10-31T21:19:43.849Z,18.20
2022-10-31T21:22:26.509Z,19.92
2022-10-31T21:25:09.504Z,21.13
2022-10-31T21:27:52.460Z,23.20
2022-10-31T21:30:35.147Z,22.33
2022-10-31T21:33:19.339Z,18.15
2022-10-31T21:36:02.342Z,17.80
2022-10-31T21:38:45.237Z,19.63
2022-10-31T21:41:28.718Z,23.17
2022-10-31T21:44:11.383Z,20.70
2022-10-31T21:46:54.291Z,21.50
2022-10-31T21:49:38.766Z,23.23
2022-10-31T21:52:21.667Z,21.67
2022-10-31T21:55:03.973Z,19.88
2022-10-31T21:57:46.737Z,21.83
2022-10-31T22:00:29.425Z,22.92
2022-10-31T22:03:12.163Z,21.63
2022-10-31T22:06:00.531Z,25.50
2022-10-31T22:08:43.927Z,22.33
2022-10-31T22:11:28.018Z,27.02
2022-10-31T22:14:12.504Z,22.33
2022-10-31T22:16:55.235Z,26.00
2022-10-31T22:19:37.965Z,27.50
2022-10-31T22:22:22.005Z,21.55
2022-10-31T22:25:04.997Z,22.50
2022-10-31T22:27:47.725Z,22.75
2022-10-31T22:30:30.431Z,22.08
2022-10-31T22:33:13.273Z,20.85
2022-10-31T22:35:56.995Z,22.00
2022-10-31T22:38:41.341Z,25.73
2022-10-31T22:41:24.777Z,19.27
2022-10-31T22:44:07.604Z,20.70
2022-10-31T22:46:50.217Z,23.17
2022-10-31T22:49:32.943Z,23.80
2022-10-31T22:52:15.554Z,17.58
2022-10-31T22:54:59.886Z,21.95
2022-10-31T22:57:42.530Z,21.77
2022-10-31T23:00:25.374Z,20.90
2022-10-31T23:03:08.053Z,26.00
2022-10-31T23:05:55.309Z,26.45
2022-10-31T23:08:38.482Z,23.08
2022-10-31T23:11:23.351Z,20.55
2022-10-31T23:14:16.352Z,21.48
2022-10-31T23:17:00.554Z,24.30
2022-10-31T23:19:43.190Z,20.65
2022-10-31T23:22:25.802Z,18.98
2022-10-31T23:25:08.856Z,19.15
2022-10-31T23:27:51.870Z,19.83
2022-10-31T23:30:34.486Z,19.75
2022-10-31T23:33:17.133Z,19.15
2022-10-31T23:35:59.871Z,23.48
2022-10-31T23:38:42.635Z,21.00
2022-10-31T23:41:25.338Z,20.45
2022-10-31T23:44:09.356Z,17.38
2022-10-31T23:46:51.996Z,18.42
2022-10-31T23:49:34.711Z,21.30
2022-10-31T23:52:17.827Z,21.80
2022-10-31T23:55:00.729Z,20.50
2022-10-31T23:57:43.493Z,17.77
